Time;durP1;ratioP1;P1;durP2;ratioP2;P2;SDS_P1;SDS_P2;PMS_P1;PMS_P2;Temp;Humidity;BMP_temperature;BMP_pressure;BME280_temperature;BME280_humidity;BME280_pressure;Samples;Min_cycle;Max_cycle;Signal;HPM_P1;HPM_P2
2023/06/21 03:01:57;;;;;;;5.55;4.85;;;;;;;19.96;66.04;100303.50;20869649;28;20215;-76
2023/06/21 03:12:07;;;;;;;5.32;4.30;;;;;;;20.17;63.88;100319.16;20755051;28;20221;-75
2023/06/21 03:22:11;;;;;;;4.80;4.30;;;;;;;19.77;63.89;100332.22;20779703;28;20200;-75
2023/06/21 03:32:15;;;;;;;7.70;3.97;;;;;;;19.75;63.36;100323.22;20811216;28;20255;-75
2023/06/21 03:42:17;;;;;;;7.22;3.75;;;;;;;19.89;63.07;100334.78;20792490;28;20196;-75
2023/06/21 03:52:21;;;;;;;7.28;4.45;;;;;;;19.86;62.64;100335.59;20819404;28;20220;-75
2023/06/21 04:02:24;;;;;;;5.00;4.50;;;;;;;19.88;62.91;100349.44;20786886;28;20224;-75
2023/06/21 04:12:30;;;;;;;5.50;4.72;;;;;;;19.97;63.35;100359.41;20748510;28;20251;-76
2023/06/21 04:22:32;;;;;;;5.57;4.68;;;;;;;19.58;64.37;100372.41;20753682;28;20678;-75
2023/06/21 04:32:35;;;;;;;6.38;4.47;;;;;;;20.67;61.42;100346.94;20796764;28;20224;-76
2023/06/21 04:42:38;;;;;;;7.45;5.03;;;;;;;20.30;63.83;100369.91;20839801;28;20251;-75
2023/06/21 04:52:40;;;;;;;7.68;5.35;;;;;;;19.96;63.85;100386.31;20774200;28;20224;-75
2023/06/21 05:02:43;;;;;;;8.27;5.93;;;;;;;20.50;61.89;100396.22;20791519;28;20228;-75
2023/06/21 05:12:45;;;;;;;6.55;5.57;;;;;;;20.51;62.43;100411.34;20804515;28;20228;-75
2023/06/21 05:22:48;;;;;;;8.55;6.00;;;;;;;21.44;59.16;100407.91;20807213;28;20204;-76
2023/06/21 05:32:51;;;;;;;8.35;5.13;;;;;;;20.68;61.32;100410.69;20825610;28;20224;-75
2023/06/21 05:42:53;;;;;;;7.40;5.70;;;;;;;21.45;60.72;100427.56;20799243;28;20193;-75
2023/06/21 05:52:59;;;;;;;7.35;6.65;;;;;;;21.35;60.79;100428.34;20825431;28;20232;-76
2023/06/21 06:03:02;;;;;;;7.75;6.68;;;;;;;21.28;61.95;100451.22;20787386;28;20228;-75
2023/06/21 06:13:05;;;;;;;7.63;6.32;;;;;;;21.83;59.54;100436.75;20786196;28;20220;-77
2023/06/21 06:23:10;;;;;;;7.85;6.72;;;;;;;21.20;60.70;100460.94;20815446;28;20497;-75
2023/06/21 06:33:13;;;;;;;9.60;7.63;;;;;;;21.87;59.38;100468.28;20778899;28;20221;-75
2023/06/21 06:43:15;;;;;;;8.80;6.95;;;;;;;22.49;56.95;100480.38;20770838;28;20200;-75
2023/06/21 06:53:18;;;;;;;8.23;6.35;;;;;;;22.05;59.24;100487.22;20768581;28;20232;-75
2023/06/21 07:03:20;;;;;;;6.80;6.10;;;;;;;21.92;57.80;100508.03;20793349;28;20228;-74
2023/06/21 07:13:23;;;;;;;9.05;6.95;;;;;;;22.50;56.49;100504.94;20782524;28;20224;-75
2023/06/21 07:23:27;;;;;;;7.03;6.32;;;;;;;22.40;56.61;100505.75;20805326;28;20258;-74
2023/06/21 07:33:29;;;;;;;8.25;7.20;;;;;;;22.96;55.50;100498.44;20741626;28;20225;-76
2023/06/21 07:43:32;;;;;;;9.32;7.20;;;;;;;22.41;56.59;100501.66;20750106;28;20196;-76
2023/06/21 07:53:34;;;;;;;11.18;7.90;;;;;;;23.34;53.51;100491.06;20805693;28;20217;-76
2023/06/21 08:03:37;;;;;;;9.98;7.45;;;;;;;24.18;52.54;100521.63;20814613;28;20560;-76
2023/06/21 08:13:39;;;;;;;10.07;7.00;;;;;;;23.42;54.04;100525.09;20768117;28;20224;-75
2023/06/21 08:23:42;;;;;;;8.40;7.53;;;;;;;22.93;53.91;100528.78;20780328;28;20682;-75
2023/06/21 08:33:44;;;;;;;9.25;7.35;;;;;;;22.99;54.28;100530.03;20784499;28;20525;-75
2023/06/21 08:43:47;;;;;;;9.70;8.15;;;;;;;24.06;53.19;100526.97;20735719;28;20197;-75
2023/06/21 08:53:50;;;;;;;8.38;7.57;;;;;;;23.55;51.33;100534.13;20810433;28;20224;-76
2023/06/21 09:03:58;;;;;;;6.97;6.35;;;;;;;24.56;48.09;100536.19;20763768;28;20216;-76
2023/06/21 09:14:01;;;;;;;7.68;6.93;;;;;;;24.33;48.38;100527.28;20806658;28;20216;-75
2023/06/21 09:24:06;;;;;;;7.47;6.00;;;;;;;24.76;47.57;100530.78;20770832;28;20243;-76
2023/06/21 09:34:08;;;;;;;7.72;5.20;;;;;;;24.89;45.75;100534.78;20790909;28;20228;-76
2023/06/21 09:44:11;;;;;;;9.40;6.15;;;;;;;24.68;45.79;100535.75;20792527;28;20295;-75
2023/06/21 09:54:14;;;;;;;7.05;6.35;;;;;;;24.65;46.42;100536.59;20765240;28;20255;-75
2023/06/21 10:04:17;;;;;;;6.15;5.55;;;;;;;25.55;44.62;100528.88;20791710;28;20236;-75
2023/06/21 10:14:25;;;;;;;6.82;4.85;;;;;;;25.60;43.27;100537.84;20770764;28;20278;-76
2023/06/21 10:24:37;;;;;;;8.52;5.60;;;;;;;24.29;45.88;100561.81;20813377;28;20193;-75
2023/06/21 10:34:59;;;;;;;7.63;5.55;;;;;;;25.82;44.32;100561.56;20838422;28;20621;-76
2023/06/21 10:45:04;;;;;;;6.15;4.40;;;;;;;24.27;45.37;100581.56;20844780;28;20208;-74
2023/06/21 10:55:13;;;;;;;5.20;4.70;;;;;;;26.07;41.59;100564.16;20809198;28;20616;-74
2023/06/21 11:05:24;;;;;;;6.82;4.55;;;;;;;25.49;42.09;100594.78;20824672;28;20220;-75
2023/06/21 11:15:31;;;;;;;6.57;4.65;;;;;;;25.31;42.49;100608.53;20839047;28;20632;-75
2023/06/21 11:25:38;;;;;;;5.22;4.47;;;;;;;26.08;38.54;100599.56;20813880;28;20259;-75
2023/06/21 11:35:50;;;;;;;6.88;5.07;;;;;;;26.63;40.04;100590.63;20832958;28;20808;-75
2023/06/21 11:46:04;;;;;;;7.30;5.82;;;;;;;27.61;36.67;100598.22;20799965;28;20211;-75
2023/06/21 11:56:16;;;;;;;8.05;5.38;;;;;;;27.33;38.31;100594.56;20817633;28;20204;-75
2023/06/21 12:06:20;;;;;;;4.95;4.45;;;;;;;27.05;36.49;100595.81;20806520;28;20221;-76
2023/06/21 12:16:25;;;;;;;4.60;4.00;;;;;;;27.50;33.70;100591.81;20822285;28;20270;-75
2023/06/21 12:26:29;;;;;;;4.90;4.40;;;;;;;26.34;36.67;100596.81;20801868;28;20193;-74
2023/06/21 12:36:35;;;;;;;4.93;3.97;;;;;;;26.80;35.81;100606.91;20787280;28;20694;-75
2023/06/21 12:46:40;;;;;;;6.63;3.90;;;;;;;26.89;34.39;100620.81;20798496;28;20262;-75
2023/06/21 12:56:58;;;;;;;3.53;3.22;;;;;;;26.45;33.45;100624.69;20816184;28;20220;-75
2023/06/21 13:07:01;;;;;;;5.00;3.55;;;;;;;27.35;33.47;100628.81;20825554;28;20228;-76
2023/06/21 13:17:04;;;;;;;5.65;2.97;;;;;;;27.84;32.25;100624.25;20814511;28;20652;-76
2023/06/21 13:27:07;;;;;;;3.70;3.40;;;;;;;27.49;32.02;100617.00;20759477;28;20271;-77
2023/06/21 13:37:10;;;;;;;4.47;3.97;;;;;;;26.93;33.39;100621.59;20792221;28;20212;-77
2023/06/21 13:47:12;;;;;;;4.00;3.70;;;;;;;28.32;32.14;100625.81;20775126;28;20251;-76
2023/06/21 13:57:15;;;;;;;6.10;4.20;;;;;;;27.22;33.23;100640.13;20790905;28;20224;-77
2023/06/21 14:07:17;;;;;;;5.40;4.50;;;;;;;27.89;32.79;100631.59;20819908;28;20245;-77
2023/06/21 14:17:22;;;;;;;5.50;4.97;;;;;;;27.45;33.43;100630.69;20792904;28;20260;-76
2023/06/21 14:27:25;;;;;;;5.00;4.50;;;;;;;27.13;32.70;100636.16;20822689;28;20193;-77
2023/06/21 14:37:27;;;;;;;3.83;3.53;;;;;;;27.21;33.73;100640.56;20824298;28;20259;-76
2023/06/21 14:47:30;;;;;;;4.47;4.15;;;;;;;27.58;32.11;100630.88;20803347;28;20247;-74
2023/06/21 14:57:33;;;;;;;4.05;3.50;;;;;;;27.66;31.43;100630.34;20800506;28;20220;-77
2023/06/21 15:07:36;;;;;;;5.05;3.78;;;;;;;27.42;31.35;100634.44;20811832;28;20695;-76
2023/06/21 15:17:39;;;;;;;4.20;3.90;;;;;;;28.01;31.28;100639.63;20807766;28;20224;-75
2023/06/21 15:27:42;;;;;;;5.05;4.65;;;;;;;27.05;31.56;100647.81;20795169;28;20498;-78
2023/06/21 15:37:44;;;;;;;5.05;4.60;;;;;;;27.28;32.22;100654.91;20791346;28;20636;-75
2023/06/21 15:47:47;;;;;;;5.20;4.70;;;;;;;28.78;30.10;100630.66;20824550;28;20235;-76
2023/06/21 15:57:50;;;;;;;3.90;3.60;;;;;;;27.06;30.98;100643.66;20799665;28;20228;-75
2023/06/21 16:07:52;;;;;;;7.13;5.43;;;;;;;26.72;32.01;100640.00;20822045;28;20224;-76
2023/06/21 16:17:55;;;;;;;5.47;5.07;;;;;;;27.23;31.62;100630.22;20772484;28;20509;-75
2023/06/21 16:27:58;;;;;;;5.85;5.25;;;;;;;27.45;31.19;100630.69;20790189;28;20636;-76
2023/06/21 16:38:02;;;;;;;5.50;4.85;;;;;;;28.03;30.38;100625.56;20804699;28;20220;-76
2023/06/21 16:48:06;;;;;;;5.07;4.68;;;;;;;27.43;30.99;100627.41;20773820;28;20255;-77
2023/06/21 16:58:10;;;;;;;4.68;4.22;;;;;;;27.74;30.80;100634.72;20766943;28;20220;-78
2023/06/21 17:08:13;;;;;;;6.18;5.13;;;;;;;26.86;30.38;100639.84;20782108;28;20978;-77
2023/06/21 17:18:16;;;;;;;5.53;5.00;;;;;;;26.86;30.56;100644.81;20781853;28;20232;-78
2023/06/21 17:28:20;;;;;;;4.88;4.10;;;;;;;26.84;31.40;100653.91;20795528;28;20234;-79
2023/06/21 17:38:23;;;;;;;5.53;5.07;;;;;;;27.32;30.29;100649.91;20828369;28;20235;-77
2023/06/21 17:48:26;;;;;;;4.15;3.85;;;;;;;27.22;31.91;100662.41;20811250;28;20604;-76
2023/06/21 17:58:29;;;;;;;4.72;4.32;;;;;;;27.75;30.96;100647.94;20751669;28;20224;-77
2023/06/21 18:08:32;;;;;;;6.15;4.57;;;;;;;27.74;30.29;100654.97;20808216;28;20224;-76
2023/06/21 18:18:34;;;;;;;8.20;4.00;;;;;;;27.11;31.10;100644.44;20755592;28;20256;-78
2023/06/21 18:28:37;;;;;;;3.85;3.45;;;;;;;26.95;31.10;100654.56;20789634;28;20251;-77
2023/06/21 18:38:40;;;;;;;4.22;3.65;;;;;;;27.34;31.51;100658.97;20760027;28;20637;-77
2023/06/21 18:48:44;;;;;;;4.60;3.83;;;;;;;26.37;32.39;100660.69;20790033;28;20250;-77
2023/06/21 18:58:54;;;;;;;6.22;2.88;;;;;;;26.87;30.95;100644.38;20763044;28;20294;-77
2023/06/21 19:08:57;;;;;;;2.90;2.70;;;;;;;26.63;32.83;100648.38;20775055;28;20219;-77
2023/06/21 19:19:01;;;;;;;2.30;2.10;;;;;;;26.28;33.38;100638.09;20770488;28;20251;-78
2023/06/21 19:29:04;;;;;;;3.90;2.63;;;;;;;25.96;34.98;100639.25;20737746;28;20251;-77
2023/06/21 19:39:08;;;;;;;6.20;2.47;;;;;;;25.88;34.19;100654.97;20729218;28;20256;-76
2023/06/21 19:49:14;;;;;;;3.88;2.40;;;;;;;25.85;33.38;100683.81;20744563;28;20197;-75
2023/06/21 19:59:16;;;;;;;5.13;2.40;;;;;;;25.61;34.84;100677.84;20765844;28;20506;-77
2023/06/21 20:09:19;;;;;;;3.50;2.50;;;;;;;25.18;36.26;100691.75;20801632;28;20224;-77
2023/06/21 20:19:22;;;;;;;3.53;2.55;;;;;;;24.81;36.11;100694.41;20793932;28;20225;-77
2023/06/21 20:29:25;;;;;;;2.90;2.60;;;;;;;24.75;36.94;100716.22;20784754;28;20196;-77
2023/06/21 20:39:27;;;;;;;4.15;3.75;;;;;;;24.51;37.62;100720.78;20777128;28;20224;-77
2023/06/21 20:49:30;;;;;;;3.80;2.90;;;;;;;24.32;37.74;100733.56;20821246;28;20208;-77
2023/06/21 20:59:33;;;;;;;3.25;2.72;;;;;;;24.53;37.91;100732.72;20813321;28;20228;-77
2023/06/21 21:09:36;;;;;;;3.15;2.78;;;;;;;24.30;38.48;100746.72;20764698;28;20229;-77
2023/06/21 21:19:39;;;;;;;3.72;2.72;;;;;;;24.11;38.56;100750.88;20819562;28;20224;-77
2023/06/21 21:29:42;;;;;;;3.63;2.80;;;;;;;24.20;38.27;100746.34;20796555;28;20200;-77
